Time;durP1;ratioP1;P1;durP2;ratioP2;P2;SDS_P1;SDS_P2;PMS_P1;PMS_P2;Temp;Humidity;BMP_temperature;BMP_pressure;BME280_temperature;BME280_humidity;BME280_pressure;Samples;Min_cycle;Max_cycle;Signal;HPM_P1;HPM_P2
2023/05/30 00:00:13;;;;;;;70.72;67.43;;;;;;;21.40;34.97;102547.69;5022248;28;20029;-74
2023/05/30 00:02:43;;;;;;;70.65;66.90;;;;;;;21.37;34.78;102545.47;5009222;28;20474;-74
2023/05/30 00:05:09;;;;;;;70.63;66.80;;;;;;;21.33;34.99;102539.66;5024569;28;20027;-74
2023/05/30 00:07:34;;;;;;;69.43;66.32;;;;;;;21.30;35.10;102551.19;5011264;28;20038;-74
2023/05/30 00:10:00;;;;;;;70.43;67.07;;;;;;;21.28;34.67;102549.81;5030153;28;20068;-74
2023/05/30 00:12:27;;;;;;;68.80;65.47;;;;;;;21.25;34.85;102544.88;5008943;28;20501;-76
2023/05/30 00:14:52;;;;;;;71.35;67.95;;;;;;;21.21;34.86;102543.75;5014327;28;20087;-73
2023/05/30 00:17:20;;;;;;;70.03;66.45;;;;;;;21.17;34.89;102547.06;5023246;28;20440;-76
2023/05/30 00:19:45;;;;;;;70.47;66.63;;;;;;;21.13;35.13;102542.34;5006368;28;20125;-75
2023/05/30 00:22:11;;;;;;;66.82;63.58;;;;;;;21.10;34.92;102545.66;5019543;28;20371;-73
2023/05/30 00:24:36;;;;;;;70.50;66.32;;;;;;;21.07;35.19;102549.78;5021198;28;20137;-74
2023/05/30 00:27:01;;;;;;;69.07;64.80;;;;;;;21.04;35.30;102550.31;5016306;28;20118;-75
2023/05/30 00:29:27;;;;;;;65.53;61.70;;;;;;;21.01;35.33;102544.50;5019554;28;20449;-74
2023/05/30 00:31:52;;;;;;;65.50;61.78;;;;;;;20.98;35.23;102548.63;5013442;28;20437;-75
2023/05/30 00:34:18;;;;;;;63.80;60.80;;;;;;;20.95;35.20;102551.91;4994963;28;20054;-74
2023/05/30 00:36:43;;;;;;;64.43;61.33;;;;;;;20.91;35.49;102557.09;5005985;28;20116;-77
2023/05/30 00:39:08;;;;;;;64.30;61.10;;;;;;;20.89;35.26;102558.47;5015912;28;20479;-75
2023/05/30 00:41:34;;;;;;;63.63;60.53;;;;;;;20.84;35.19;102550.22;4994686;28;20026;-75
2023/05/30 00:43:59;;;;;;;65.95;62.30;;;;;;;20.80;35.12;102558.16;4994768;28;20538;-76
2023/05/30 00:46:29;;;;;;;66.07;62.97;;;;;;;20.77;35.18;102557.91;4994783;28;20030;-74
2023/05/30 00:48:56;;;;;;;65.05;61.95;;;;;;;20.73;35.72;102563.91;5024909;28;20038;-73
2023/05/30 00:51:26;;;;;;;62.78;59.38;;;;;;;20.71;35.33;102566.09;5013934;28;20033;-74
2023/05/30 00:53:52;;;;;;;65.93;62.72;;;;;;;20.66;35.43;102562.47;5014759;28;20044;-74
2023/05/30 00:56:18;;;;;;;65.45;62.05;;;;;;;20.64;35.43;102567.44;5013304;28;20042;-74
2023/05/30 00:58:44;;;;;;;65.85;62.30;;;;;;;20.61;35.68;102563.28;5013662;28;20049;-75
2023/05/30 01:01:09;;;;;;;65.30;61.80;;;;;;;20.58;35.72;102563.00;5027906;28;20120;-75
2023/05/30 01:03:35;;;;;;;63.90;60.60;;;;;;;20.54;35.56;102573.66;5021599;28;20124;-74
2023/05/30 01:06:03;;;;;;;67.43;63.80;;;;;;;20.51;35.85;102565.94;5013071;28;20029;-74
2023/05/30 01:08:28;;;;;;;64.72;60.38;;;;;;;20.46;35.57;102571.41;5011343;28;20049;-74
2023/05/30 01:11:03;;;;;;;62.45;59.15;;;;;;;20.43;35.86;102570.00;5014367;28;20391;-76
2023/05/30 01:13:43;;;;;;;65.45;61.75;;;;;;;20.39;35.91;102565.34;5025017;28;20120;-74
2023/05/30 01:16:14;;;;;;;61.05;57.65;;;;;;;20.37;35.72;102562.84;5011392;28;20470;-73
2023/05/30 01:18:47;;;;;;;61.58;58.67;;;;;;;20.34;35.96;102573.53;5005230;28;20080;-73
2023/05/30 01:21:15;;;;;;;64.45;61.20;;;;;;;20.30;35.79;102563.06;5002917;28;20045;-73
2023/05/30 01:24:17;;;;;;;61.60;57.88;;;;;;;20.27;35.85;102560.84;5003043;28;20125;-73
2023/05/30 01:27:21;;;;;;;63.20;59.80;;;;;;;20.24;36.14;102560.56;5001373;28;20391;-73
2023/05/30 01:29:48;;;;;;;61.20;57.78;;;;;;;20.19;36.19;102555.88;4996122;28;20050;-74
2023/05/30 01:32:14;;;;;;;62.42;58.90;;;;;;;20.16;36.01;102558.28;5015658;28;20041;-73
2023/05/30 01:34:39;;;;;;;61.30;58.05;;;;;;;20.14;36.36;102555.00;5012242;28;20478;-74
2023/05/30 01:37:05;;;;;;;66.30;61.47;;;;;;;20.10;36.12;102562.91;4996157;28;20068;-74
2023/05/30 01:39:30;;;;;;;63.53;59.65;;;;;;;20.08;36.19;102562.34;5007220;28;20038;-74
2023/05/30 01:42:12;;;;;;;61.95;58.67;;;;;;;20.06;35.88;102559.06;4994936;28;20046;-76
2023/05/30 01:44:58;;;;;;;60.28;57.35;;;;;;;20.02;36.02;102564.22;5026065;28;20428;-74
2023/05/30 01:47:28;;;;;;;61.90;58.40;;;;;;;19.99;36.32;102566.69;5001932;28;20041;-74
2023/05/30 01:50:08;;;;;;;63.70;59.90;;;;;;;19.94;36.29;102564.72;4998709;28;20069;-75
2023/05/30 01:52:39;;;;;;;61.63;58.53;;;;;;;19.91;36.46;102576.22;5005357;28;20041;-74
2023/05/30 01:55:08;;;;;;;62.33;59.00;;;;;;;19.88;36.20;102572.09;5010707;28;20029;-74
2023/05/30 01:57:36;;;;;;;;;;;;;;;19.85;36.24;102575.31;5024622;28;20034;-73
2023/05/30 02:00:02;;;;;;;57.70;54.63;;;;;;;19.81;36.17;102576.97;5004684;28;19917;-76
2023/05/30 02:02:28;;;;;;;59.28;55.55;;;;;;;19.78;36.39;102572.00;5027376;28;20030;-75
2023/05/30 02:04:53;;;;;;;59.92;56.60;;;;;;;19.76;36.31;102576.09;5010034;28;20029;-74
2023/05/30 02:07:18;;;;;;;59.67;56.38;;;;;;;19.74;36.25;102583.75;5010212;28;20429;-75
2023/05/30 02:09:44;;;;;;;60.47;57.00;;;;;;;19.71;36.35;102587.00;5025181;28;20469;-73
2023/05/30 02:12:10;;;;;;;57.45;54.40;;;;;;;19.66;36.78;102588.56;5022983;28;20271;-73
2023/05/30 02:14:36;;;;;;;57.13;54.35;;;;;;;19.63;36.47;102594.56;5013642;28;20041;-76
2023/05/30 02:17:02;;;;;;;58.17;55.00;;;;;;;19.61;36.72;102602.22;5005637;28;20026;-76
2023/05/30 02:19:28;;;;;;;58.40;54.75;;;;;;;19.59;36.63;102592.59;5011699;28;20500;-75
2023/05/30 02:21:54;;;;;;;59.70;56.08;;;;;;;19.56;36.40;102585.72;5012042;28;20041;-74
2023/05/30 02:24:21;;;;;;;58.17;55.47;;;;;;;19.55;36.63;102591.47;5018123;28;20046;-74
2023/05/30 02:26:46;;;;;;;58.08;55.33;;;;;;;19.50;36.65;102589.47;5016889;28;20038;-74
2023/05/30 02:29:12;;;;;;;58.70;55.63;;;;;;;19.48;36.92;102594.41;5015652;28;20064;-74
2023/05/30 02:31:37;;;;;;;59.95;56.83;;;;;;;19.45;36.93;102583.94;5031845;28;20037;-73
2023/05/30 02:34:03;;;;;;;59.60;56.55;;;;;;;19.41;36.56;102591.06;5010352;28;20116;-74
2023/05/30 02:36:28;;;;;;;59.08;56.25;;;;;;;19.40;36.93;102594.84;5003697;28;20069;-76
2023/05/30 02:38:53;;;;;;;58.15;54.58;;;;;;;19.36;36.62;102589.06;5003435;28;20054;-74
2023/05/30 02:41:20;;;;;;;58.08;55.20;;;;;;;19.33;36.90;102584.13;5001886;28;20030;-74
2023/05/30 02:43:45;;;;;;;58.35;54.80;;;;;;;19.29;36.98;102577.47;5030228;28;20389;-74
2023/05/30 02:46:10;;;;;;;59.90;55.80;;;;;;;19.28;36.72;102580.47;5017114;28;20099;-74
2023/05/30 02:48:36;;;;;;;57.10;53.97;;;;;;;19.26;36.87;102588.97;5008390;28;20038;-73
2023/05/30 02:51:01;;;;;;;59.58;56.33;;;;;;;19.22;36.72;102588.63;5007279;28;20042;-73
2023/05/30 02:53:27;;;;;;;56.97;54.08;;;;;;;19.20;36.91;102584.50;4982225;28;20566;-74
2023/05/30 02:55:52;;;;;;;58.50;54.88;;;;;;;19.16;37.22;102578.72;5013073;28;20474;-74
2023/05/30 02:58:17;;;;;;;57.10;54.05;;;;;;;19.14;36.97;102574.56;4993900;28;20180;-76
2023/05/30 03:00:43;;;;;;;57.05;53.90;;;;;;;19.10;36.78;102577.00;5009423;28;20034;-74
2023/05/30 03:03:09;;;;;;;57.55;54.40;;;;;;;19.08;36.95;102576.44;5015327;28;20465;-75
2023/05/30 03:05:35;;;;;;;56.22;53.22;;;;;;;19.05;36.96;102579.69;5007732;28;20131;-75
2023/05/30 03:08:01;;;;;;;58.38;55.10;;;;;;;19.02;37.06;102582.91;5000180;28;20474;-73
2023/05/30 03:10:26;;;;;;;55.83;52.63;;;;;;;19.00;37.32;102585.09;5021419;28;20045;-75
2023/05/30 03:12:52;;;;;;;58.83;54.63;;;;;;;18.97;37.41;102589.13;5024175;28;20037;-74
2023/05/30 03:15:18;;;;;;;56.50;53.60;;;;;;;18.94;37.24;102586.91;5004975;28;20038;-74
2023/05/30 03:17:44;;;;;;;58.00;54.35;;;;;;;18.93;37.33;102584.44;5000211;28;20030;-73
2023/05/30 03:20:10;;;;;;;55.92;52.83;;;;;;;18.90;37.32;102588.53;5011239;28;20069;-73
2023/05/30 03:22:35;;;;;;;54.65;51.90;;;;;;;18.86;37.39;102583.81;5003686;28;20033;-74
2023/05/30 03:25:01;;;;;;;56.53;53.05;;;;;;;18.85;37.58;102588.47;5024894;28;20061;-74
2023/05/30 03:27:26;;;;;;;56.33;53.25;;;;;;;18.81;37.42;102585.38;5014770;28;20458;-74
2023/05/30 03:29:53;;;;;;;56.55;53.47;;;;;;;18.79;37.45;102592.19;5019440;28;20433;-75
2023/05/30 03:32:19;;;;;;;56.47;52.88;;;;;;;18.76;37.20;102592.69;4998880;28;20038;-73
2023/05/30 03:34:47;;;;;;;54.80;52.10;;;;;;;18.73;37.72;102584.97;5011066;28;20080;-73
2023/05/30 03:37:13;;;;;;;54.30;51.22;;;;;;;18.72;37.43;102597.00;4975684;28;20062;-73
2023/05/30 03:39:38;;;;;;;55.95;52.78;;;;;;;18.69;37.64;102600.22;5019955;28;20077;-73
2023/05/30 03:42:04;;;;;;;56.97;53.70;;;;;;;18.66;37.54;102608.97;5011002;28;20447;-73
2023/05/30 03:44:30;;;;;;;53.60;50.72;;;;;;;18.64;37.47;102611.13;5006928;28;20034;-74
2023/05/30 03:46:56;;;;;;;54.90;52.03;;;;;;;18.61;37.97;102620.66;5015469;28;20047;-74
2023/05/30 03:49:21;;;;;;;53.35;50.28;;;;;;;18.59;37.88;102631.00;5004667;28;20463;-73
2023/05/30 03:51:46;;;;;;;55.83;52.60;;;;;;;18.56;37.61;102632.34;5011154;28;20048;-74
2023/05/30 03:54:12;;;;;;;55.60;52.67;;;;;;;18.54;37.67;102626.28;4993530;28;20099;-75
2023/05/30 03:56:37;;;;;;;55.85;52.75;;;;;;;18.52;37.87;102623.00;5011343;28;20120;-75
2023/05/30 03:59:02;;;;;;;54.83;51.88;;;;;;;18.49;37.69;102628.94;5013126;28;20038;-72
2023/05/30 04:01:28;;;;;;;54.08;50.75;;;;;;;18.47;37.54;102627.53;4999542;28;20033;-74
2023/05/30 04:03:54;;;;;;;54.63;50.42;;;;;;;18.44;37.71;102622.56;5010295;28;20042;-73
2023/05/30 04:06:19;;;;;;;52.90;49.85;;;;;;;18.42;37.88;102633.78;5023730;28;20033;-73
2023/05/30 04:08:44;;;;;;;51.40;48.50;;;;;;;18.41;37.70;102636.75;5020496;28;20141;-74
2023/05/30 04:11:10;;;;;;;53.35;50.45;;;;;;;18.38;37.71;102641.66;5013708;28;20040;-73
2023/05/30 04:13:35;;;;;;;54.00;51.10;;;;;;;18.36;38.25;102629.28;5004451;28;20486;-73
2023/05/30 04:16:01;;;;;;;52.58;49.60;;;;;;;18.33;37.79;102630.63;4996960;28;20390;-74
2023/05/30 04:18:27;;;;;;;52.75;49.95;;;;;;;18.31;38.07;102632.78;5010408;28;20182;-73
2023/05/30 04:20:53;;;;;;;53.28;49.67;;;;;;;18.29;38.19;102639.56;4996168;28;20065;-73
2023/05/30 04:23:18;;;;;;;54.55;50.67;;;;;;;18.26;38.15;102629.13;5012927;28;20038;-73
2023/05/30 04:25:44;;;;;;;52.25;49.55;;;;;;;18.24;38.23;102631.28;5009798;28;20115;-73
2023/05/30 04:28:16;;;;;;;57.78;54.17;;;;;;;18.22;38.24;102634.28;5027094;28;20039;-74
2023/05/30 04:30:42;;;;;;;51.58;48.65;;;;;;;18.19;38.32;102631.19;5009458;28;20041;-75
2023/05/30 04:33:07;;;;;;;54.30;51.35;;;;;;;18.16;38.14;102625.13;5026112;28;20029;-74
2023/05/30 04:35:33;;;;;;;50.75;48.15;;;;;;;18.15;38.21;102628.13;5016641;28;20044;-73
2023/05/30 04:37:59;;;;;;;52.10;49.47;;;;;;;18.13;38.56;102641.22;5002136;28;20034;-73
2023/05/30 04:40:26;;;;;;;52.55;49.15;;;;;;;18.11;38.08;102633.25;5014685;28;20458;-73
2023/05/30 04:42:52;;;;;;;50.45;47.85;;;;;;;18.09;38.04;102632.69;4984216;28;20057;-73
2023/05/30 04:45:18;;;;;;;53.80;50.47;;;;;;;18.07;38.13;102629.38;5001224;28;20462;-75
2023/05/30 04:47:46;;;;;;;52.47;49.20;;;;;;;18.05;38.39;102626.06;5014170;28;20037;-73
2023/05/30 04:50:15;;;;;;;51.40;48.70;;;;;;;18.03;38.39;102627.38;5012304;28;20042;-76
2023/05/30 04:52:44;;;;;;;52.70;49.17;;;;;;;18.01;38.45;102630.34;5006508;28;20125;-74
2023/05/30 04:55:10;;;;;;;;;;;;;;;18.00;38.47;102627.88;5013607;28;20033;-74
2023/05/30 04:57:38;;;;;;;49.90;46.72;;;;;;;17.98;38.34;102630.84;5009955;28;19967;-73
2023/05/30 05:00:15;;;;;;;50.13;47.35;;;;;;;17.95;38.64;102626.72;5014887;28;20067;-73
2023/05/30 05:02:42;;;;;;;51.35;48.33;;;;;;;17.92;38.34;102632.66;5006800;28;20038;-72
2023/05/30 05:05:08;;;;;;;51.15;48.15;;;;;;;17.90;38.53;102632.09;5003567;28;20034;-74
2023/05/30 05:07:33;;;;;;;52.80;49.95;;;;;;;17.89;38.81;102635.91;5022460;28;20038;-72
2023/05/30 05:09:59;;;;;;;50.05;47.42;;;;;;;17.87;38.66;102627.13;5007690;28;20450;-72
2023/05/30 05:12:24;;;;;;;51.47;48.72;;;;;;;17.86;38.61;102630.91;5005915;28;20108;-74
2023/05/30 05:14:50;;;;;;;50.00;47.50;;;;;;;17.85;38.64;102631.16;5010569;28;20436;-73
2023/05/30 05:17:15;;;;;;;54.50;51.10;;;;;;;17.84;38.63;102626.75;5015199;28;20037;-73
2023/05/30 05:19:41;;;;;;;51.03;47.88;;;;;;;17.82;38.76;102637.13;5030423;28;20042;-74
2023/05/30 05:22:06;;;;;;;48.78;46.38;;;;;;;17.81;38.78;102632.72;5010306;28;20049;-73
2023/05/30 05:24:32;;;;;;;50.05;47.35;;;;;;;17.78;38.68;102620.34;5005444;28;20045;-72
2023/05/30 05:26:58;;;;;;;50.28;47.67;;;;;;;17.77;38.99;102632.38;5030092;28;20058;-72
2023/05/30 05:29:24;;;;;;;51.92;49.13;;;;;;;17.74;38.68;102625.47;5020332;28;20045;-68
2023/05/30 05:31:50;;;;;;;50.28;47.28;;;;;;;17.72;38.95;102624.91;4996235;28;20054;-73
2023/05/30 05:34:16;;;;;;;49.97;47.35;;;;;;;17.72;38.81;102635.00;4998230;28;20402;-73
2023/05/30 05:36:42;;;;;;;49.22;46.85;;;;;;;17.70;38.82;102634.41;5009636;28;20474;-75
2023/05/30 05:39:08;;;;;;;50.10;47.50;;;;;;;17.69;38.92;102625.38;5031898;28;20035;-73
2023/05/30 05:41:34;;;;;;;50.80;47.03;;;;;;;17.69;39.04;102638.22;5011045;28;20049;-74
2023/05/30 05:44:00;;;;;;;50.47;47.78;;;;;;;17.68;38.79;102631.91;5012131;28;20042;-73
2023/05/30 05:46:26;;;;;;;50.50;47.80;;;;;;;17.68;39.33;102628.34;5013139;28;20487;-77
2023/05/30 05:48:54;;;;;;;50.97;47.88;;;;;;;17.68;39.21;102633.81;5026777;28;20050;-74
2023/05/30 05:51:20;;;;;;;48.55;46.15;;;;;;;17.66;39.12;102630.50;5020425;28;20474;-74
2023/05/30 05:53:45;;;;;;;51.45;47.47;;;;;;;17.63;39.22;102642.75;5016723;28;20450;-73
2023/05/30 05:56:11;;;;;;;51.88;48.20;;;;;;;17.63;39.49;102634.53;5034508;28;20112;-73
2023/05/30 05:58:36;;;;;;;49.47;46.85;;;;;;;17.64;39.34;102635.38;5023016;28;20105;-73
2023/05/30 06:01:02;;;;;;;48.80;46.40;;;;;;;17.64;39.08;102638.09;4997939;28;20434;-73
2023/05/30 06:03:28;;;;;;;48.25;45.75;;;;;;;17.64;39.06;102627.19;5003327;28;20038;-76
2023/05/30 06:05:53;;;;;;;48.58;45.63;;;;;;;17.61;39.13;102633.97;5016583;28;20033;-76
2023/05/30 06:08:18;;;;;;;49.92;47.05;;;;;;;17.60;39.28;102635.03;5015784;28;20056;-77
2023/05/30 06:10:44;;;;;;;48.92;46.38;;;;;;;17.58;39.07;102634.44;5023205;28;20489;-77
2023/05/30 06:13:09;;;;;;;48.70;45.92;;;;;;;17.57;39.56;102632.81;5018796;28;20045;-75
2023/05/30 06:15:35;;;;;;;50.65;47.83;;;;;;;17.58;39.48;102637.19;5020708;28;20090;-76
2023/05/30 06:18:00;;;;;;;48.03;45.42;;;;;;;17.58;39.45;102639.09;5011666;28;20091;-76
2023/05/30 06:20:26;;;;;;;48.85;46.25;;;;;;;17.56;39.32;102636.59;5019933;28;20041;-75
2023/05/30 06:22:51;;;;;;;50.42;46.70;;;;;;;17.58;39.27;102637.19;5009649;28;20390;-73
2023/05/30 06:25:17;;;;;;;50.08;47.25;;;;;;;17.58;39.45;102633.63;5008772;28;20407;-74
2023/05/30 06:27:42;;;;;;;49.85;47.35;;;;;;;17.58;39.61;102641.81;5019630;28;20085;-74
2023/05/30 06:30:08;;;;;;;49.63;47.13;;;;;;;17.57;39.42;102646.47;5008233;28;20498;-74
2023/05/30 06:32:33;;;;;;;49.60;46.88;;;;;;;17.54;39.37;102638.75;5019525;28;20239;-74
2023/05/30 06:34:59;;;;;;;51.13;48.03;;;;;;;17.55;39.39;102655.97;5014882;28;20037;-74
2023/05/30 06:37:24;;;;;;;50.72;47.50;;;;;;;17.54;39.73;102652.44;4999490;28;20038;-73
2023/05/30 06:39:49;;;;;;;49.58;46.63;;;;;;;17.53;39.79;102648.84;5005753;28;20041;-73
2023/05/30 06:42:15;;;;;;;47.40;44.97;;;;;;;17.52;39.64;102649.91;5021876;28;20061;-76
2023/05/30 06:44:40;;;;;;;48.60;46.00;;;;;;;17.53;39.45;102645.28;5008759;28;20398;-75
2023/05/30 06:47:06;;;;;;;49.05;45.80;;;;;;;17.53;39.67;102648.00;5019825;28;20033;-74
2023/05/30 06:49:31;;;;;;;48.35;45.33;;;;;;;17.53;39.68;102648.00;4987210;28;20085;-74
2023/05/30 06:51:57;;;;;;;47.17;44.92;;;;;;;17.52;39.95;102649.91;4994516;28;20074;-75
2023/05/30 06:54:22;;;;;;;48.53;45.78;;;;;;;17.52;39.63;102655.38;5007876;28;20034;-74
2023/05/30 06:56:48;;;;;;;48.03;45.72;;;;;;;17.52;39.98;102655.38;5025279;28;20163;-75
2023/05/30 06:59:13;;;;;;;47.92;45.42;;;;;;;17.52;39.91;102660.84;5029030;28;20064;-75
2023/05/30 07:01:39;;;;;;;49.00;46.08;;;;;;;17.52;39.98;102657.28;5024292;28;20066;-74
2023/05/30 07:04:04;;;;;;;47.25;44.95;;;;;;;17.53;39.85;102665.22;5006578;28;20044;-74
2023/05/30 07:06:30;;;;;;;52.33;48.72;;;;;;;17.52;40.12;102658.13;5009066;28;20061;-75
2023/05/30 07:08:55;;;;;;;46.85;44.55;;;;;;;17.54;39.92;102663.34;4995528;28;20035;-76
2023/05/30 07:11:22;;;;;;;48.55;45.03;;;;;;;17.53;40.06;102662.50;4995862;28;20041;-74
2023/05/30 07:13:47;;;;;;;47.58;44.90;;;;;;;17.52;39.85;102663.59;5002681;28;20069;-73
2023/05/30 07:16:13;;;;;;;50.38;47.05;;;;;;;17.54;39.99;102666.09;4977050;28;20450;-76
2023/05/30 07:18:38;;;;;;;48.20;45.60;;;;;;;17.55;40.20;102664.19;5010243;28;20499;-76
2023/05/30 07:21:04;;;;;;;49.72;46.03;;;;;;;17.55;40.38;102661.44;4979949;28;20045;-75
2023/05/30 07:23:29;;;;;;;50.08;47.38;;;;;;;17.55;40.40;102656.81;5004198;28;20501;-77
2023/05/30 07:25:54;;;;;;;48.55;45.92;;;;;;;17.56;40.30;102663.09;5013254;28;20053;-77
2023/05/30 07:28:22;;;;;;;49.70;46.78;;;;;;;17.58;40.13;102666.41;5023113;28;20482;-78
2023/05/30 07:30:48;;;;;;;48.75;46.00;;;;;;;17.59;39.97;102677.13;5018498;28;20449;-75
2023/05/30 07:33:13;;;;;;;81.68;50.55;;;;;;;17.61;40.08;102671.38;5009064;28;20072;-76
2023/05/30 07:35:39;;;;;;;115.88;54.55;;;;;;;17.61;40.28;102676.84;5008091;28;20117;-76
2023/05/30 07:38:04;;;;;;;47.72;45.10;;;;;;;17.61;40.34;102688.59;4990415;28;20054;-76
2023/05/30 07:40:30;;;;;;;49.85;46.00;;;;;;;17.61;40.40;102683.16;4990377;28;20026;-76
2023/05/30 07:42:55;;;;;;;47.97;45.08;;;;;;;17.63;40.09;102681.00;5000106;28;20041;-76
2023/05/30 07:45:20;;;;;;;47.00;44.42;;;;;;;17.63;40.33;102688.38;4994314;28;20366;-75
2023/05/30 07:47:46;;;;;;;48.05;45.20;;;;;;;17.63;40.35;102680.19;5007377;28;20034;-74
2023/05/30 07:50:12;;;;;;;48.58;46.08;;;;;;;17.63;40.22;102675.53;4993912;28;20049;-77
2023/05/30 07:52:37;;;;;;;49.25;46.75;;;;;;;17.65;40.07;102676.13;4991128;28;20057;-76
2023/05/30 07:55:03;;;;;;;51.33;48.42;;;;;;;17.66;40.17;102675.03;5015919;28;20030;-79
2023/05/30 07:57:28;;;;;;;50.28;47.55;;;;;;;17.66;40.48;102672.31;5021186;28;20065;-76
2023/05/30 07:59:54;;;;;;;49.60;46.20;;;;;;;17.68;40.58;102669.34;5004994;28;20039;-76
2023/05/30 08:02:20;;;;;;;49.42;46.63;;;;;;;17.68;40.40;102667.44;4997141;28;20069;-75
2023/05/30 08:04:46;;;;;;;49.25;45.97;;;;;;;17.71;40.52;102663.38;4997278;28;20124;-74
2023/05/30 08:07:11;;;;;;;48.90;46.30;;;;;;;17.72;40.38;102665.88;5012194;28;20439;-75
2023/05/30 08:09:37;;;;;;;49.75;46.83;;;;;;;17.72;40.58;102665.88;4996626;28;20121;-74
2023/05/30 08:12:05;;;;;;;49.45;46.55;;;;;;;17.74;40.45;102665.66;4995250;28;20538;-75
2023/05/30 08:14:31;;;;;;;47.90;45.20;;;;;;;17.77;40.68;102658.88;5009314;28;20046;-74
2023/05/30 08:16:56;;;;;;;49.38;46.47;;;;;;;17.79;40.45;102660.28;5009892;28;20048;-75
2023/05/30 08:19:22;;;;;;;50.55;47.83;;;;;;;17.82;40.74;102657.09;5011969;28;20038;-75
2023/05/30 08:21:47;;;;;;;50.45;47.60;;;;;;;17.84;40.47;102654.09;5011046;28;20042;-75
2023/05/30 08:24:15;;;;;;;50.67;47.67;;;;;;;17.86;40.52;102652.78;4996986;28;20049;-75
2023/05/30 08:26:41;;;;;;;51.85;48.42;;;;;;;17.88;40.63;102652.53;5008454;28;20062;-75
2023/05/30 08:29:06;;;;;;;49.97;47.08;;;;;;;17.91;40.53;102658.34;4975832;28;20050;-74
2023/05/30 08:31:32;;;;;;;51.10;48.33;;;;;;;17.95;40.53;102658.69;5004090;28;20042;-76
2023/05/30 08:34:01;;;;;;;52.50;49.50;;;;;;;18.00;40.30;102653.31;4995715;28;20064;-77
2023/05/30 08:36:26;;;;;;;54.38;49.33;;;;;;;18.04;40.78;102650.91;5010223;28;20030;-76
2023/05/30 08:38:54;;;;;;;59.67;52.08;;;;;;;18.07;40.90;102654.00;5001542;28;20045;-76
2023/05/30 08:41:22;;;;;;;50.47;47.42;;;;;;;18.12;40.70;102653.25;5004885;28;20046;-75
2023/05/30 08:43:49;;;;;;;50.67;47.78;;;;;;;18.16;40.79;102647.03;5008426;28;20054;-75
2023/05/30 08:46:16;;;;;;;52.83;49.83;;;;;;;18.25;40.54;102641.16;4997243;28;20544;-75
2023/05/30 08:48:44;;;;;;;53.53;50.40;;;;;;;18.31;40.64;102646.44;5004587;28;20042;-74
2023/05/30 08:51:13;;;;;;;53.50;49.97;;;;;;;18.36;40.96;102641.06;4994206;28;20042;-75
2023/05/30 08:53:41;;;;;;;;;;;;;;;18.42;40.96;102649.34;4997982;28;20077;-75
2023/05/30 08:56:10;;;;;;;54.08;50.10;;;;;;;18.46;40.85;102640.41;4993738;28;19910;-74
2023/05/30 08:58:39;;;;;;;54.35;50.42;;;;;;;18.53;40.60;102637.50;4994735;28;20822;-75
2023/05/30 09:01:06;;;;;;;52.95;49.83;;;;;;;18.60;40.73;102638.16;5000703;28;20037;-76
2023/05/30 09:03:34;;;;;;;54.75;51.63;;;;;;;18.67;40.55;102641.56;5021709;28;20045;-74
2023/05/30 09:06:00;;;;;;;55.33;51.85;;;;;;;18.74;40.62;102635.91;5002499;28;20042;-74
2023/05/30 09:08:27;;;;;;;53.75;50.58;;;;;;;18.80;40.96;102630.28;4993564;28;20046;-74
2023/05/30 09:10:54;;;;;;;52.70;49.45;;;;;;;18.86;41.04;102631.19;5002583;28;20038;-75
2023/05/30 09:13:21;;;;;;;55.38;52.28;;;;;;;18.94;40.89;102632.66;5005816;28;20125;-74
2023/05/30 09:15:46;;;;;;;54.28;50.88;;;;;;;19.00;41.04;102627.00;5005858;28;20172;-75
2023/05/30 09:18:12;;;;;;;58.80;55.13;;;;;;;19.07;40.96;102620.50;5007553;28;20538;-74
2023/05/30 09:20:39;;;;;;;58.03;54.40;;;;;;;19.13;40.61;102628.53;4998687;28;20045;-75
2023/05/30 09:23:06;;;;;;;58.22;54.50;;;;;;;19.21;40.54;102632.75;4991001;28;20026;-75
2023/05/30 09:25:42;;;;;;;58.40;54.60;;;;;;;19.28;40.54;102630.63;5013639;28;20042;-74
2023/05/30 09:28:07;;;;;;;57.65;54.30;;;;;;;19.35;40.44;102620.31;5026612;28;20038;-76
2023/05/30 09:30:33;;;;;;;58.53;55.38;;;;;;;19.41;40.65;102621.19;5011194;28;20394;-76
2023/05/30 09:33:02;;;;;;;60.20;56.35;;;;;;;19.48;40.32;102615.50;5001333;28;20065;-74
2023/05/30 09:35:27;;;;;;;58.67;55.13;;;;;;;19.56;40.50;102618.63;4999416;28;20109;-81
2023/05/30 09:37:53;;;;;;;58.95;55.78;;;;;;;19.63;40.23;102622.00;5014267;28;20121;-74
2023/05/30 09:40:18;;;;;;;59.58;56.47;;;;;;;19.72;40.34;102616.06;5012163;28;20033;-75
2023/05/30 09:42:52;;;;;;;61.90;58.10;;;;;;;19.80;40.29;102618.34;5005159;28;20056;-75
2023/05/30 09:45:21;;;;;;;61.22;58.03;;;;;;;19.88;40.40;102615.97;5013415;28;20030;-75
2023/05/30 09:47:50;;;;;;;62.38;59.28;;;;;;;19.96;40.48;102611.91;5002111;28;20042;-74
2023/05/30 09:50:20;;;;;;;60.72;57.35;;;;;;;20.04;40.28;102603.22;4993698;28;20062;-74
2023/05/30 09:52:51;;;;;;;62.17;58.47;;;;;;;20.12;40.26;102601.91;4999662;28;20057;-75
2023/05/30 09:55:18;;;;;;;58.50;55.55;;;;;;;20.22;40.23;102618.44;4996074;28;20042;-74
2023/05/30 09:57:48;;;;;;;60.55;57.42;;;;;;;20.32;40.41;102606.72;5016104;28;20029;-74
2023/05/30 10:00:15;;;;;;;63.78;60.20;;;;;;;20.41;39.83;102598.81;5019817;28;20534;-74
2023/05/30 10:02:54;;;;;;;64.03;60.83;;;;;;;20.49;40.33;102601.09;5012551;28;20032;-74
2023/05/30 10:05:24;;;;;;;64.00;60.45;;;;;;;20.60;40.15;102602.00;5013738;28;20030;-73
2023/05/30 10:07:52;;;;;;;65.28;61.72;;;;;;;20.69;40.21;102606.72;5007273;28;20113;-73
2023/05/30 10:10:18;;;;;;;65.77;61.97;;;;;;;20.78;39.94;102592.50;5008568;28;20490;-75
2023/05/30 10:12:48;;;;;;;63.80;60.75;;;;;;;20.88;40.32;102589.78;4993333;28;20398;-74
2023/05/30 10:15:13;;;;;;;65.88;62.47;;;;;;;20.96;40.29;102594.75;5000822;28;20101;-75
2023/05/30 10:17:46;;;;;;;67.50;63.95;;;;;;;21.05;39.48;102593.16;4997119;28;20152;-75
2023/05/30 10:20:13;;;;;;;66.40;62.60;;;;;;;21.16;39.50;102589.34;4994778;28;20534;-74
2023/05/30 10:22:43;;;;;;;70.93;66.95;;;;;;;21.26;39.22;102593.25;4997467;28;20077;-74
2023/05/30 10:25:10;;;;;;;68.35;63.95;;;;;;;21.35;39.19;102577.88;5024354;28;20038;-75
2023/05/30 10:27:43;;;;;;;70.25;66.45;;;;;;;21.44;39.10;102583.69;5012538;28;20057;-74
2023/05/30 10:30:11;;;;;;;69.47;65.15;;;;;;;21.53;38.93;102582.91;5003683;28;20044;-76
2023/05/30 10:32:38;;;;;;;;;;;;;;;21.60;39.31;102577.97;5010443;28;20385;-74
2023/05/30 10:35:18;;;;;;;69.80;65.82;;;;;;;21.70;38.68;102587.34;5012256;28;20011;-75
2023/05/30 10:37:44;;;;;;;70.32;66.80;;;;;;;21.79;38.51;102583.75;5003082;28;20026;-74
2023/05/30 10:40:25;;;;;;;70.75;67.18;;;;;;;21.90;38.34;102579.09;5000924;28;20065;-74
2023/05/30 10:43:09;;;;;;;72.80;69.13;;;;;;;21.99;38.74;102576.59;5006124;28;20181;-74
2023/05/30 10:46:12;;;;;;;74.53;70.28;;;;;;;22.12;38.93;102572.47;5007992;28;20034;-75
2023/05/30 10:48:47;;;;;;;73.50;69.30;;;;;;;22.21;38.79;102574.44;5007648;28;20038;-77
2023/05/30 10:51:13;;;;;;;74.90;70.85;;;;;;;22.31;38.90;102572.78;5019932;28;20056;-75
2023/05/30 10:53:47;;;;;;;75.97;72.18;;;;;;;22.39;38.60;102567.50;4993390;28;20030;-74
2023/05/30 10:56:34;;;;;;;78.00;73.90;;;;;;;22.49;38.26;102572.19;5012271;28;20032;-74
2023/05/30 10:59:02;;;;;;;73.93;70.28;;;;;;;22.58;38.63;102562.25;4997904;28;20028;-75
2023/05/30 11:01:33;;;;;;;75.25;71.65;;;;;;;22.67;38.86;102557.78;5007763;28;20030;-74
2023/05/30 11:04:08;;;;;;;78.28;74.55;;;;;;;22.76;38.63;102552.53;5004866;28;20121;-75
2023/05/30 11:06:36;;;;;;;79.00;74.43;;;;;;;22.86;38.68;102557.19;4992552;28;20477;-77
2023/05/30 11:09:11;;;;;;;74.25;70.72;;;;;;;22.95;38.86;102563.75;4996366;28;20030;-73